createdAt,value
2023-08-18T00:01:23.777Z,101275.69
2023-08-18T00:03:52.130Z,101276.38
2023-08-18T00:06:20.399Z,101272.59
2023-08-18T00:08:48.573Z,101277.81
2023-08-18T00:11:18.074Z,101282.91
2023-08-18T00:13:46.249Z,101285.91
2023-08-18T00:16:15.254Z,101269.34
2023-08-18T00:18:43.596Z,101269.16
2023-08-18T00:21:11.784Z,101265.19
2023-08-18T00:23:40.004Z,101270.28
2023-08-18T00:26:10.109Z,101273.38
2023-08-18T00:28:40.278Z,101278.19
2023-08-18T00:31:10.191Z,101283.97
2023-08-18T00:33:38.367Z,101283.56
2023-08-18T00:36:06.624Z,101291.94
2023-08-18T00:38:34.880Z,101296.03
2023-08-18T00:41:03.987Z,101281.47
2023-08-18T00:43:32.172Z,101280.19
2023-08-18T00:46:02.163Z,101278.19
2023-08-18T00:48:30.618Z,101278.16
2023-08-18T00:51:00.857Z,101286.06
2023-08-18T00:53:31.214Z,101288.22
2023-08-18T00:55:59.841Z,101290.31
2023-08-18T00:58:28.921Z,101286.91
2023-08-18T01:00:57.644Z,101293.44
2023-08-18T01:03:27.911Z,101281.81
2023-08-18T01:05:56.817Z,101287.47
2023-08-18T01:08:25.010Z,101283.66
2023-08-18T01:11:00.967Z,101291.31
2023-08-18T01:13:38.792Z,101290.13
2023-08-18T01:16:12.776Z,101294.31
2023-08-18T01:18:45.118Z,101283.25
2023-08-18T01:21:13.878Z,101285.53
2023-08-18T01:23:44.180Z,101287.03
2023-08-18T01:26:12.384Z,101298.19
2023-08-18T01:28:41.186Z,101311.56
2023-08-18T01:31:12.867Z,101310.28
2023-08-18T01:33:46.512Z,101309.28
2023-08-18T01:36:19.444Z,101307.03
2023-08-18T01:38:50.647Z,101302.00
2023-08-18T01:41:22.573Z,101294.25
2023-08-18T01:43:50.845Z,101293.09
2023-08-18T01:46:19.117Z,101297.63
2023-08-18T01:48:47.297Z,101297.78
2023-08-18T01:51:15.463Z,101302.03
2023-08-18T01:53:43.617Z,101302.31
2023-08-18T01:56:13.442Z,101308.44
2023-08-18T01:58:41.634Z,101305.13
2023-08-18T02:01:09.807Z,101311.72
2023-08-18T02:03:38.082Z,101319.13
2023-08-18T02:06:06.469Z,101319.91
2023-08-18T02:08:35.606Z,101322.53
2023-08-18T02:11:04.384Z,101315.91
2023-08-18T02:13:34.688Z,101314.31
2023-08-18T02:16:03.139Z,101320.03
2023-08-18T02:18:33.464Z,101318.22
2023-08-18T02:21:03.477Z,101315.53
2023-08-18T02:23:31.749Z,101314.66
2023-08-18T02:26:04.087Z,101318.47
2023-08-18T02:28:35.974Z,101325.75
2023-08-18T02:31:06.066Z,101319.06
2023-08-18T02:33:35.275Z,101313.22
2023-08-18T02:36:03.880Z,101326.19
2023-08-18T02:38:32.886Z,101315.53
2023-08-18T02:41:01.154Z,101311.84
2023-08-18T02:43:29.497Z,101314.31
2023-08-18T02:45:59.743Z,101303.91
2023-08-18T02:48:29.155Z,101305.84
2023-08-18T02:51:05.091Z,101300.25
2023-08-18T02:53:34.056Z,101316.69
2023-08-18T02:56:03.217Z,101320.69
2023-08-18T02:58:35.038Z,101326.66
2023-08-18T03:01:07.392Z,101317.53
2023-08-18T03:03:35.998Z,101311.78
2023-08-18T03:06:05.189Z,101323.63
2023-08-18T03:08:34.012Z,101324.75
2023-08-18T03:11:03.419Z,101328.28
2023-08-18T03:13:31.720Z,101319.72
2023-08-18T03:16:00.014Z,101334.50
2023-08-18T03:18:29.596Z,101334.75
2023-08-18T03:21:01.861Z,101346.22
2023-08-18T03:23:31.695Z,101352.78
2023-08-18T03:26:01.626Z,101367.00
2023-08-18T03:28:29.840Z,101380.06
2023-08-18T03:31:03.110Z,101390.69
2023-08-18T03:33:35.260Z,101409.91
2023-08-18T03:36:06.152Z,101401.84
2023-08-18T03:38:34.397Z,101402.81
2023-08-18T03:41:05.682Z,101395.66
2023-08-18T03:43:34.397Z,101388.13
2023-08-18T03:46:18.286Z,101389.88
2023-08-18T03:48:51.060Z,101391.38
2023-08-18T03:51:19.940Z,101414.94
2023-08-18T03:53:48.345Z,101413.84
2023-08-18T03:56:17.898Z,101422.69
2023-08-18T03:58:46.613Z,101430.66
2023-08-18T04:01:15.525Z,101434.75
2023-08-18T04:03:45.122Z,101430.34
2023-08-18T04:06:15.118Z,101434.91
2023-08-18T04:08:44.615Z,101441.31
2023-08-18T04:11:12.915Z,101434.66
2023-08-18T04:13:41.516Z,101433.19
2023-08-18T04:16:09.914Z,101430.22
2023-08-18T04:18:40.045Z,101430.66
2023-08-18T04:21:09.743Z,101430.91
2023-08-18T04:23:39.316Z,101428.69
2023-08-18T04:26:07.508Z,101427.38
2023-08-18T04:28:35.774Z,101432.41
2023-08-18T04:31:04.013Z,101437.00
2023-08-18T04:33:45.973Z,101432.34
2023-08-18T04:36:14.558Z,101431.44
2023-08-18T04:38:44.694Z,101429.09
2023-08-18T04:41:20.720Z,101428.41
2023-08-18T04:43:51.099Z,101430.91
2023-08-18T04:46:20.514Z,101430.38
2023-08-18T04:48:48.977Z,101419.03
2023-08-18T04:51:17.694Z,101419.56
2023-08-18T04:53:47.235Z,101419.91
2023-08-18T04:56:16.314Z,101422.91
2023-08-18T04:58:44.850Z,101418.50
2023-08-18T05:01:14.027Z,101410.84
2023-08-18T05:03:42.584Z,101400.72
2023-08-18T05:06:13.820Z,101413.84
2023-08-18T05:08:42.352Z,101415.38
2023-08-18T05:11:13.147Z,101423.31
2023-08-18T05:13:43.227Z,101423.53
2023-08-18T05:16:11.695Z,101433.88
2023-08-18T05:18:39.948Z,101437.03
2023-08-18T05:21:08.172Z,101417.81
2023-08-18T05:23:36.797Z,101416.53
2023-08-18T05:26:04.999Z,101414.59
2023-08-18T05:28:34.708Z,101407.50
2023-08-18T05:31:03.209Z,101413.34
2023-08-18T05:33:31.576Z,101413.59
2023-08-18T05:36:00.563Z,101410.47
2023-08-18T05:38:29.377Z,101403.69
2023-08-18T05:41:10.740Z,101412.00
2023-08-18T05:43:41.245Z,101414.97
2023-08-18T05:46:09.995Z,101406.50
2023-08-18T05:48:38.453Z,101417.97
2023-08-18T05:51:06.736Z,101414.69
2023-08-18T05:53:34.918Z,101413.88
2023-08-18T05:56:03.372Z,101411.19
2023-08-18T05:58:31.575Z,101413.13
2023-08-18T06:01:01.149Z,101402.06
2023-08-18T06:03:31.713Z,101402.06
2023-08-18T06:06:04.124Z,101393.13
2023-08-18T06:08:34.695Z,101380.53
2023-08-18T06:11:02.904Z,101382.28
2023-08-18T06:13:31.082Z,101374.19
2023-08-18T06:15:59.358Z,101364.47
2023-08-18T06:18:28.859Z,101346.91
2023-08-18T06:20:57.022Z,101350.31
2023-08-18T06:23:25.225Z,101347.88
2023-08-18T06:25:53.463Z,101346.03
2023-08-18T06:28:21.725Z,101342.34
2023-08-18T06:30:49.903Z,101337.50
2023-08-18T06:33:18.089Z,101337.81
2023-08-18T06:35:49.724Z,101331.00
2023-08-18T06:38:17.937Z,101339.59
2023-08-18T06:40:47.229Z,101324.91
2023-08-18T06:43:15.416Z,101320.47
2023-08-18T06:45:44.445Z,101316.22
2023-08-18T06:48:13.126Z,101320.50
2023-08-18T06:50:41.708Z,101308.06
2023-08-18T06:53:11.206Z,101306.91
2023-08-18T06:55:47.709Z,101303.66
2023-08-18T06:58:28.021Z,101299.13
2023-08-18T07:00:56.371Z,101290.81
2023-08-18T07:03:24.837Z,101285.47
2023-08-18T07:05:53.587Z,101280.78
2023-08-18T07:08:24.498Z,101273.41
2023-08-18T07:10:52.676Z,101270.44
2023-08-18T07:13:21.594Z,101279.06
2023-08-18T07:15:50.091Z,101281.47
2023-08-18T07:18:19.174Z,101277.03
2023-08-18T07:20:47.932Z,101273.25
2023-08-18T07:23:16.956Z,101271.56
2023-08-18T07:25:46.978Z,101255.19
2023-08-18T07:28:15.183Z,101257.50
2023-08-18T07:30:43.429Z,101252.59
2023-08-18T07:33:12.173Z,101251.88
2023-08-18T07:35:40.390Z,101246.22
2023-08-18T07:38:08.621Z,101247.00
2023-08-18T07:40:36.942Z,101246.00
2023-08-18T07:43:06.491Z,101249.41
2023-08-18T07:45:34.696Z,101242.84
2023-08-18T07:48:02.969Z,101245.16
2023-08-18T07:50:31.350Z,101253.09
2023-08-18T07:52:59.531Z,101254.50
2023-08-18T07:55:27.763Z,101259.59
2023-08-18T07:57:55.976Z,101260.59
2023-08-18T08:00:27.728Z,101257.41
2023-08-18T08:02:55.900Z,101264.69
2023-08-18T08:05:24.176Z,101271.34
2023-08-18T08:07:53.160Z,101264.38
2023-08-18T08:10:21.441Z,101272.88
2023-08-18T08:12:50.224Z,101276.19
2023-08-18T08:15:18.814Z,101266.09
2023-08-18T08:17:48.501Z,101277.59
2023-08-18T08:20:17.980Z,101276.09
2023-08-18T08:22:48.958Z,101274.19
2023-08-18T08:25:17.522Z,101276.22
2023-08-18T08:27:45.869Z,101284.22
2023-08-18T08:30:25.813Z,101277.94
2023-08-18T08:32:56.255Z,101288.94
2023-08-18T08:35:28.575Z,101284.53
2023-08-18T08:37:57.589Z,101275.66
2023-08-18T08:40:26.139Z,101277.84
2023-08-18T08:43:04.220Z,101272.34
2023-08-18T08:45:35.022Z,101278.56
2023-08-18T08:48:08.374Z,101270.28
2023-08-18T08:50:46.479Z,101285.59
2023-08-18T08:53:20.345Z,101282.78
2023-08-18T08:55:50.506Z,101274.72
2023-08-18T09:00:47.811Z,101270.78
2023-08-18T09:03:17.663Z,101271.34
2023-08-18T09:05:45.922Z,101279.47
2023-08-18T09:08:14.433Z,101282.22
2023-08-18T09:10:44.329Z,101279.84
2023-08-18T09:13:14.162Z,101272.47
2023-08-18T09:15:42.930Z,101278.63
2023-08-18T09:18:13.617Z,101276.59
2023-08-18T09:20:44.393Z,101277.72
2023-08-18T09:23:12.668Z,101273.31
2023-08-18T09:25:40.897Z,101260.94
2023-08-18T09:28:15.786Z,101262.91
2023-08-18T09:30:44.710Z,101267.59
2023-08-18T09:33:13.016Z,101265.91
2023-08-18T09:35:41.234Z,101270.34
2023-08-18T09:38:14.294Z,101273.59
2023-08-18T09:40:42.557Z,101276.41
2023-08-18T09:43:10.767Z,101277.78
2023-08-18T09:45:41.751Z,101276.25
2023-08-18T09:48:13.009Z,101284.94
2023-08-18T09:50:43.202Z,101276.97
2023-08-18T09:53:14.660Z,101269.13
2023-08-18T09:55:45.864Z,101257.34
2023-08-18T09:58:22.013Z,101267.03
2023-08-18T10:00:57.912Z,101274.31
2023-08-18T10:03:27.863Z,101274.13
2023-08-18T10:05:56.118Z,101288.34
2023-08-18T10:08:27.813Z,101280.13
2023-08-18T10:10:56.258Z,101264.38
2023-08-18T10:13:25.451Z,101254.94
2023-08-18T10:15:54.615Z,101252.66
2023-08-18T10:18:24.252Z,101250.84
2023-08-18T10:20:54.182Z,101237.97
2023-08-18T10:23:26.795Z,101238.38
2023-08-18T10:25:55.049Z,101238.88
2023-08-18T10:28:29.727Z,101224.78
2023-08-18T10:31:06.510Z,101225.44
2023-08-18T10:33:36.649Z,101224.84
2023-08-18T10:36:06.567Z,101221.53
2023-08-18T10:38:39.976Z,101218.53
2023-08-18T10:41:08.121Z,101214.63
2023-08-18T10:43:43.873Z,101211.25
2023-08-18T10:46:13.688Z,101205.09
2023-08-18T10:48:42.367Z,101205.16
2023-08-18T10:51:10.632Z,101204.63
2023-08-18T10:53:41.489Z,101198.94
2023-08-18T10:56:09.933Z,101199.03
2023-08-18T10:58:38.087Z,101192.06
2023-08-18T11:01:09.449Z,101204.22
2023-08-18T11:03:38.012Z,101194.38
2023-08-18T11:06:06.759Z,101187.03
2023-08-18T11:08:35.499Z,101189.19
2023-08-18T11:11:05.350Z,101196.00
2023-08-18T11:13:33.558Z,101184.16
2023-08-18T11:16:01.736Z,101180.97
2023-08-18T11:18:30.611Z,101178.31
2023-08-18T11:20:59.393Z,101177.94
2023-08-18T11:23:28.467Z,101168.19
2023-08-18T11:25:57.504Z,101166.94
2023-08-18T11:28:27.323Z,101160.19
2023-08-18T11:30:56.561Z,101156.44
2023-08-18T11:33:26.790Z,101166.94
2023-08-18T11:35:56.250Z,101160.94
2023-08-18T11:38:24.751Z,101165.84
2023-08-18T11:40:53.190Z,101160.22
2023-08-18T11:43:23.058Z,101168.03
2023-08-18T11:45:54.286Z,101162.34
2023-08-18T11:48:22.567Z,101172.06
2023-08-18T11:50:57.143Z,101168.53
2023-08-18T11:53:26.748Z,101165.19
2023-08-18T11:55:55.335Z,101162.16
2023-08-18T11:58:25.967Z,101166.97
2023-08-18T12:00:55.762Z,101164.69
2023-08-18T12:03:25.914Z,101156.50
2023-08-18T12:05:56.148Z,101159.19
2023-08-18T12:08:24.963Z,101166.69
2023-08-18T12:10:55.751Z,101162.38
2023-08-18T12:13:24.689Z,101157.75
2023-08-18T12:15:52.872Z,101161.22
2023-08-18T12:18:22.430Z,101166.97
2023-08-18T12:20:50.634Z,101165.94
2023-08-18T12:23:18.934Z,101168.00
2023-08-18T12:25:47.150Z,101170.09
2023-08-18T12:28:15.343Z,101167.63
2023-08-18T12:30:43.565Z,101166.09
2023-08-18T12:33:11.797Z,101179.75
2023-08-18T12:35:41.385Z,101170.34
2023-08-18T12:38:09.615Z,101169.19
2023-08-18T12:40:38.524Z,101176.13
2023-08-18T12:43:07.819Z,101172.25
2023-08-18T12:45:36.026Z,101167.59
2023-08-18T12:48:04.360Z,101161.53
2023-08-18T12:50:32.550Z,101175.91
2023-08-18T12:53:02.042Z,101174.44
2023-08-18T12:55:31.092Z,101169.19
2023-08-18T12:57:59.945Z,101168.22
2023-08-18T13:00:28.089Z,101165.91
2023-08-18T13:02:56.274Z,101172.91
2023-08-18T13:05:24.473Z,101169.47
2023-08-18T13:07:53.468Z,101169.94
2023-08-18T13:10:23.112Z,101173.72
2023-08-18T13:12:51.940Z,101172.03
2023-08-18T13:15:20.522Z,101171.34
2023-08-18T13:17:48.900Z,101178.44
2023-08-18T13:20:17.195Z,101177.59
2023-08-18T13:22:45.449Z,101173.81
2023-08-18T13:25:15.321Z,101168.06
2023-08-18T13:27:45.414Z,101170.94
2023-08-18T13:30:14.147Z,101172.19
2023-08-18T13:32:42.362Z,101171.16
2023-08-18T13:35:11.754Z,101174.66
2023-08-18T13:37:40.334Z,101173.03
2023-08-18T13:40:09.798Z,101171.38
2023-08-18T13:42:38.040Z,101170.66
2023-08-18T13:45:08.853Z,101159.00
2023-08-18T13:47:38.185Z,101161.50
2023-08-18T13:50:07.306Z,101153.97
2023-08-18T13:52:35.771Z,101153.63
2023-08-18T13:55:04.352Z,101153.00
2023-08-18T13:57:32.551Z,101157.50
2023-08-18T14:00:00.723Z,101155.69
2023-08-18T14:02:30.442Z,101148.63
2023-08-18T14:04:58.880Z,101150.16
2023-08-18T14:07:27.079Z,101150.34
2023-08-18T14:09:55.219Z,101144.53
2023-08-18T14:12:23.487Z,101134.16
2023-08-18T14:14:51.948Z,101141.94
2023-08-18T14:20:15.187Z,101127.00
2023-08-18T14:22:44.649Z,101118.41
2023-08-18T14:25:13.571Z,101117.44
2023-08-18T14:27:42.198Z,101116.91
2023-08-18T14:30:10.677Z,101118.34
2023-08-18T14:32:38.879Z,101118.38
2023-08-18T14:35:09.053Z,101118.75
2023-08-18T14:37:40.097Z,101107.50
2023-08-18T14:40:10.979Z,101106.50
2023-08-18T14:42:39.841Z,101106.66
2023-08-18T14:45:09.250Z,101103.31
2023-08-18T14:47:37.646Z,101098.88
2023-08-18T14:50:06.751Z,101097.41
2023-08-18T14:52:34.961Z,101102.84
2023-08-18T14:55:05.509Z,101090.25
2023-08-18T14:57:34.891Z,101096.59
2023-08-18T15:00:05.871Z,101093.63
2023-08-18T15:02:34.637Z,101089.84
2023-08-18T15:05:03.046Z,101088.72
2023-08-18T15:07:31.236Z,101081.00
2023-08-18T15:09:59.411Z,101081.66
2023-08-18T15:12:29.179Z,101083.19
2023-08-18T15:14:57.910Z,101086.50
2023-08-18T15:17:26.119Z,101080.94
2023-08-18T15:19:54.463Z,101081.16
2023-08-18T15:22:22.759Z,101083.50
2023-08-18T15:24:52.318Z,101084.81
2023-08-18T15:27:20.562Z,101078.22
2023-08-18T15:29:50.232Z,101077.84
2023-08-18T15:32:18.404Z,101090.47
2023-08-18T15:34:46.626Z,101080.72
2023-08-18T15:37:14.796Z,101076.31
2023-08-18T15:39:43.014Z,101090.00
2023-08-18T15:42:11.310Z,101082.13
2023-08-18T15:44:39.473Z,101084.72
2023-08-18T15:47:08.986Z,101085.50
2023-08-18T15:49:37.122Z,101094.88
2023-08-18T15:52:05.832Z,101088.25
2023-08-18T15:54:34.214Z,101090.16
2023-08-18T15:57:02.373Z,101083.13
2023-08-18T15:59:32.170Z,101088.91
2023-08-18T16:02:00.545Z,101080.22
2023-08-18T16:04:30.052Z,101078.97
2023-08-18T16:06:58.206Z,101079.63
2023-08-18T16:09:26.383Z,101071.78
2023-08-18T16:11:54.538Z,101075.81
2023-08-18T16:14:58.334Z,101083.25
2023-08-18T16:17:13.520Z,101083.25
2023-08-18T16:19:43.017Z,101071.00
2023-08-18T16:22:11.293Z,101078.84
2023-08-18T16:24:39.486Z,101074.19
2023-08-18T16:27:07.706Z,101080.66
2023-08-18T16:29:35.850Z,101077.03
2023-08-18T16:32:05.030Z,101083.66
2023-08-18T16:34:33.237Z,101082.28
2023-08-18T16:37:02.808Z,101096.63
2023-08-18T16:39:31.006Z,101095.38
2023-08-18T16:41:59.640Z,101099.94
2023-08-18T16:44:27.902Z,101104.28
2023-08-18T16:46:56.106Z,101101.34
2023-08-18T16:49:24.362Z,101106.16
2023-08-18T16:51:52.518Z,101094.53
2023-08-18T16:54:22.169Z,101095.72
2023-08-18T16:56:50.830Z,101098.50
2023-08-18T16:59:19.199Z,101089.97
2023-08-18T17:01:47.374Z,101100.81
2023-08-18T17:04:16.361Z,101109.31
2023-08-18T17:06:44.626Z,101099.78
2023-08-18T17:09:13.178Z,101099.13
2023-08-18T17:11:42.662Z,101096.31
2023-08-18T17:14:10.838Z,101105.41
2023-08-18T17:16:39.087Z,101105.44
2023-08-18T17:19:07.372Z,101111.00
2023-08-18T17:21:38.593Z,101113.53
2023-08-18T17:24:07.445Z,101111.88
2023-08-18T17:26:36.034Z,101117.25
2023-08-18T17:29:05.863Z,101119.91
2023-08-18T17:31:35.230Z,101122.56
2023-08-18T17:34:03.650Z,101118.28
2023-08-18T17:36:31.864Z,101123.75
2023-08-18T17:39:00.091Z,101122.53
2023-08-18T17:41:28.448Z,101131.50
2023-08-18T17:43:56.639Z,101130.28
2023-08-18T17:46:26.280Z,101136.16
2023-08-18T17:48:54.525Z,101127.13
2023-08-18T17:51:22.671Z,101132.97
2023-08-18T17:53:50.838Z,101130.44
2023-08-18T17:56:19.007Z,101133.06
2023-08-18T17:58:47.157Z,101134.88
2023-08-18T18:01:15.327Z,101134.59
2023-08-18T18:03:45.027Z,101138.38
2023-08-18T18:06:13.304Z,101138.91
2023-08-18T18:08:41.505Z,101141.09
2023-08-18T18:11:09.681Z,101149.06
2023-08-18T18:13:37.868Z,101148.88
2023-08-18T18:16:06.194Z,101149.25
2023-08-18T18:18:34.425Z,101155.00
2023-08-18T18:21:04.295Z,101147.50
2023-08-18T18:23:32.509Z,101146.66
2023-08-18T18:26:00.703Z,101159.50
2023-08-18T18:28:28.872Z,101156.41
2023-08-18T18:30:57.080Z,101160.72
2023-08-18T18:33:26.890Z,101156.97
2023-08-18T18:35:55.044Z,101164.84
2023-08-18T18:38:24.610Z,101165.25
2023-08-18T18:40:52.805Z,101159.94
2023-08-18T18:43:21.140Z,101164.75
2023-08-18T18:45:49.323Z,101160.41
2023-08-18T18:48:17.515Z,101170.44
2023-08-18T18:50:45.687Z,101180.28
2023-08-18T18:53:13.868Z,101182.53
2023-08-18T18:55:43.428Z,101191.41
2023-08-18T18:58:11.930Z,101192.25
2023-08-18T19:00:40.088Z,101198.63
2023-08-18T19:03:08.340Z,101201.00
2023-08-18T19:05:40.605Z,101193.78
2023-08-18T19:08:08.867Z,101200.44
2023-08-18T19:10:37.214Z,101194.22
2023-08-18T19:13:06.776Z,101198.50
2023-08-18T19:15:36.154Z,101196.84
2023-08-18T19:18:04.936Z,101197.91
2023-08-18T19:20:33.300Z,101194.19
2023-08-18T19:23:02.074Z,101200.03
2023-08-18T19:25:30.244Z,101198.31
2023-08-18T19:27:59.107Z,101194.75
2023-08-18T19:30:28.856Z,101194.75
2023-08-18T19:32:57.339Z,101193.22
2023-08-18T19:35:25.533Z,101199.66
2023-08-18T19:37:53.724Z,101202.19
2023-08-18T19:40:22.302Z,101186.78
2023-08-18T19:42:50.441Z,101178.63
2023-08-18T19:45:19.033Z,101176.94
2023-08-18T19:47:48.655Z,101188.16
2023-08-18T19:50:16.864Z,101180.25
2023-08-18T19:52:46.178Z,101175.88
2023-08-18T19:55:14.814Z,101186.53
2023-08-18T19:57:42.965Z,101182.22
2023-08-18T20:00:14.162Z,101181.06
2023-08-18T20:02:42.821Z,101189.66
2023-08-18T20:05:13.573Z,101185.41
2023-08-18T20:07:41.761Z,101186.00
2023-08-18T20:10:10.504Z,101182.78
2023-08-18T20:12:38.763Z,101175.00
2023-08-18T20:15:08.175Z,101176.22
2023-08-18T20:17:38.189Z,101172.16
2023-08-18T20:20:08.285Z,101174.31
2023-08-18T20:22:39.035Z,101180.00
2023-08-18T20:25:09.008Z,101182.41
2023-08-18T20:27:37.489Z,101174.84
2023-08-18T20:30:06.840Z,101177.31
2023-08-18T20:32:37.260Z,101170.41
2023-08-18T20:35:06.057Z,101185.38
2023-08-18T20:37:34.220Z,101181.34
2023-08-18T20:40:04.311Z,101176.34
2023-08-18T20:42:36.800Z,101173.66
2023-08-18T20:45:05.463Z,101180.44
2023-08-18T20:47:33.624Z,101172.41
2023-08-18T20:50:01.855Z,101176.09
2023-08-18T20:52:30.432Z,101169.47
2023-08-18T20:54:58.948Z,101168.72
2023-08-18T20:57:28.755Z,101166.25
2023-08-18T20:59:57.196Z,101178.03
2023-08-18T21:02:25.652Z,101166.63
2023-08-18T21:04:55.792Z,101167.69
2023-08-18T21:07:24.059Z,101179.28
2023-08-18T21:09:52.383Z,101170.09
2023-08-18T21:12:20.777Z,101181.19
2023-08-18T21:14:50.618Z,101176.59
2023-08-18T21:17:18.943Z,101167.66
2023-08-18T21:19:47.111Z,101179.53
2023-08-18T21:22:15.321Z,101181.53
2023-08-18T21:24:43.482Z,101175.19
2023-08-18T21:27:12.006Z,101184.31
2023-08-18T21:29:40.197Z,101175.66
2023-08-18T21:32:10.131Z,101185.28
2023-08-18T21:34:38.381Z,101180.91
2023-08-18T21:37:08.153Z,101182.59
2023-08-18T21:39:36.535Z,101177.03
2023-08-18T21:42:04.896Z,101173.06
2023-08-18T21:47:01.386Z,101183.50
2023-08-18T21:49:30.887Z,101186.75
2023-08-18T21:51:59.032Z,101184.97
2023-08-18T21:54:30.282Z,101191.53
2023-08-18T21:56:58.884Z,101186.31
2023-08-18T21:59:27.559Z,101185.84
2023-08-18T22:01:55.749Z,101189.53
2023-08-18T22:04:24.045Z,101184.06
2023-08-18T22:06:53.555Z,101184.50
2023-08-18T22:09:21.865Z,101184.50
2023-08-18T22:11:52.471Z,101180.25
2023-08-18T22:14:21.698Z,101183.56
2023-08-18T22:16:49.911Z,101177.16
2023-08-18T22:19:18.091Z,101177.63
2023-08-18T22:21:46.433Z,101174.91
2023-08-18T22:24:15.979Z,101176.63
2023-08-18T22:26:44.829Z,101177.47
2023-08-18T22:29:13.150Z,101174.38
2023-08-18T22:31:41.349Z,101178.47
2023-08-18T22:34:09.559Z,101187.56
2023-08-18T22:36:37.748Z,101189.78
2023-08-18T22:39:06.454Z,101188.38
2023-08-18T22:41:35.929Z,101187.69
2023-08-18T22:44:04.242Z,101179.56
2023-08-18T22:46:32.372Z,101176.28
2023-08-18T22:49:00.552Z,101188.41
2023-08-18T22:51:28.730Z,101187.53
2023-08-18T22:53:56.897Z,101191.50
2023-08-18T22:56:25.040Z,101194.50
2023-08-18T22:58:54.551Z,101186.13
2023-08-18T23:01:22.780Z,101185.72
2023-08-18T23:03:51.023Z,101192.56
2023-08-18T23:06:19.207Z,101194.09
2023-08-18T23:08:47.434Z,101186.03
2023-08-18T23:11:15.601Z,101190.88
2023-08-18T23:13:43.744Z,101182.09
2023-08-18T23:16:13.362Z,101189.28
2023-08-18T23:18:41.554Z,101194.81
2023-08-18T23:21:09.744Z,101180.09
2023-08-18T23:23:38.034Z,101185.63
2023-08-18T23:26:06.256Z,101177.97
2023-08-18T23:28:34.900Z,101188.63
2023-08-18T23:31:06.264Z,101186.91
2023-08-18T23:33:36.389Z,101184.03
2023-08-18T23:36:05.131Z,101183.56
2023-08-18T23:38:34.612Z,101190.81
2023-08-18T23:41:03.006Z,101182.13
2023-08-18T23:43:32.385Z,101188.34
2023-08-18T23:46:04.740Z,101190.66
2023-08-18T23:48:41.674Z,101189.59
2023-08-18T23:51:10.377Z,101183.50
2023-08-18T23:53:38.609Z,101180.25
2023-08-18T23:56:06.967Z,101185.56
2023-08-18T23:58:35.640Z,101193.47
